Time;durP1;ratioP1;P1;durP2;ratioP2;P2;SDS_P1;SDS_P2;PMS_P1;PMS_P2;Temp;Humidity;BMP_temperature;BMP_pressure;BME280_temperature;BME280_humidity;BME280_pressure;Samples;Min_cycle;Max_cycle;Signal;HPM_P1;HPM_P2
2023/01/07 00:01:18;;;;;;;149.00;78.50;;;;;;;1.87;78.61;94793.32;1661056;86;21050;-47
2023/01/07 00:03:45;;;;;;;150.65;80.05;;;;;;;1.90;78.54;94788.47;1659645;86;21058;-48
2023/01/07 00:06:18;;;;;;;143.93;76.67;;;;;;;1.87;78.17;94790.04;1659014;86;21110;-48
2023/01/07 00:08:47;;;;;;;139.12;75.03;;;;;;;1.83;78.32;94784.42;1657947;86;21629;-49
2023/01/07 00:11:18;;;;;;;136.03;70.60;;;;;;;1.83;78.40;94781.71;1659920;86;22087;-49
2023/01/07 00:13:47;;;;;;;135.32;70.55;;;;;;;1.90;78.71;94778.97;1656610;86;21113;-49
2023/01/07 00:16:16;;;;;;;124.78;67.03;;;;;;;1.89;77.87;94785.56;1659174;86;21514;-49
2023/01/07 00:18:44;;;;;;;129.07;69.80;;;;;;;1.87;78.03;94778.41;1658766;86;21581;-48
2023/01/07 00:21:15;;;;;;;135.75;70.90;;;;;;;1.86;77.87;94789.06;1656112;86;21113;-47
2023/01/07 00:23:42;;;;;;;115.90;65.05;;;;;;;1.87;77.73;94787.89;1653534;86;21609;-47
2023/01/07 00:26:18;;;;;;;118.82;67.55;;;;;;;1.91;77.69;94798.94;1697334;81;21762;-48
2023/01/07 00:28:48;;;;;;;119.75;65.17;;;;;;;1.88;77.37;94797.58;1735947;81;21571;-49
2023/01/07 00:31:17;;;;;;;116.62;66.28;;;;;;;1.88;77.57;94793.51;1720249;82;21607;-48
2023/01/07 00:36:23;;;;;;;142.22;78.70;;;;;;;1.77;77.18;94799.55;1737635;81;21178;-48
2023/01/07 00:39:00;;;;;;;158.63;83.47;;;;;;;1.66;77.29;94804.80;1721291;81;21084;-48
2023/01/07 00:41:26;;;;;;;145.62;78.17;;;;;;;1.58;77.65;94799.96;1725306;81;21293;-48
2023/01/07 00:43:54;;;;;;;144.85;77.30;;;;;;;1.62;78.10;94796.66;1731058;81;21598;-48
2023/01/07 00:46:22;;;;;;;142.62;79.97;;;;;;;1.66;77.99;94801.48;1731436;80;21046;-48
2023/01/07 00:48:48;;;;;;;151.75;87.33;;;;;;;1.65;78.29;94799.19;1766736;80;21220;-48
2023/01/07 00:51:17;;;;;;;161.77;86.72;;;;;;;1.66;78.31;94798.02;1771147;80;20970;-48
2023/01/07 00:53:43;;;;;;;151.50;83.45;;;;;;;1.59;78.24;94790.66;1759072;80;21018;-48
2023/01/07 00:56:10;;;;;;;147.72;78.75;;;;;;;1.59;78.91;94799.36;1770143;79;20989;-48
2023/01/07 00:58:37;;;;;;;129.70;73.78;;;;;;;1.65;78.81;94796.47;1759907;80;21072;-48
2023/01/07 01:01:05;;;;;;;119.47;66.62;;;;;;;1.63;78.68;94798.20;1755175;80;21273;-47
2023/01/07 01:03:32;;;;;;;120.92;62.95;;;;;;;1.62;79.07;94792.59;1772902;79;20985;-49
2023/01/07 01:06:09;;;;;;;104.35;56.30;;;;;;;1.67;79.18;94790.84;1770899;80;20998;-48
2023/01/07 01:08:36;;;;;;;133.90;70.52;;;;;;;1.74;78.87;94790.84;1774294;79;21081;-48
2023/01/07 01:11:06;;;;;;;150.07;81.35;;;;;;;1.72;78.57;94793.74;1719584;80;20954;-48
2023/01/07 01:13:34;;;;;;;167.75;88.62;;;;;;;1.66;78.85;94789.29;1710672;82;21266;-47
2023/01/07 01:16:01;;;;;;;161.22;86.17;;;;;;;1.67;78.84;94781.34;1716407;82;21009;-48
2023/01/07 01:18:27;;;;;;;155.55;83.42;;;;;;;1.68;78.75;94780.18;1727164;82;21149;-48
2023/01/07 01:20:54;;;;;;;158.30;81.42;;;;;;;1.67;78.75;94778.63;1730711;82;20997;-53
2023/01/07 01:23:21;;;;;;;226.02;103.95;;;;;;;1.69;78.87;94779.02;1726448;82;21592;-47
2023/01/07 01:25:50;;;;;;;175.03;88.20;;;;;;;1.64;78.89;94776.70;1724867;81;21576;-47
2023/01/07 01:28:17;;;;;;;165.25;87.78;;;;;;;1.72;79.41;94780.94;1727717;82;21557;-48
2023/01/07 01:30:44;;;;;;;176.68;89.58;;;;;;;1.82;79.28;94787.73;1720674;82;21033;-47
2023/01/07 01:33:11;;;;;;;199.05;96.25;;;;;;;1.95;79.17;94777.23;1735356;82;21138;-48
2023/01/07 01:35:40;;;;;;;177.55;87.50;;;;;;;2.04;78.68;94776.23;1731004;82;21124;-48
2023/01/07 01:38:07;;;;;;;227.18;104.40;;;;;;;2.03;78.49;94770.05;1729622;82;22236;-48
2023/01/07 01:40:34;;;;;;;183.80;89.45;;;;;;;2.04;78.53;94778.94;1735418;81;21485;-47
2023/01/07 01:43:00;;;;;;;171.57;83.82;;;;;;;2.03;78.39;94781.47;1719293;81;21583;-49
2023/01/07 01:45:28;;;;;;;152.57;81.50;;;;;;;2.02;78.16;94781.28;1724755;82;21152;-48
2023/01/07 01:48:02;;;;;;;161.05;85.67;;;;;;;1.94;78.24;94777.05;1732223;82;21074;-49
2023/01/07 01:50:40;;;;;;;167.47;86.82;;;;;;;1.88;78.20;94779.95;1647435;87;21065;-48
2023/01/07 01:53:15;;;;;;;183.55;92.12;;;;;;;1.87;78.77;94777.05;1640031;86;21023;-48
2023/01/07 01:55:48;;;;;;;178.65;92.80;;;;;;;1.94;78.86;94775.09;1611706;87;21069;-47
2023/01/07 01:58:23;;;;;;;216.37;107.17;;;;;;;1.99;78.95;94779.36;1601914;87;20995;-49
2023/01/07 02:00:50;;;;;;;179.55;90.65;;;;;;;2.01;79.08;94774.31;1618353;87;21164;-48
2023/01/07 02:03:19;;;;;;;173.15;87.85;;;;;;;2.08;78.97;94787.84;1593082;89;21475;-48
2023/01/07 02:05:46;;;;;;;156.15;81.45;;;;;;;2.10;78.74;94771.97;1596584;89;21147;-48
2023/01/07 02:08:20;;;;;;;154.87;83.22;;;;;;;2.06;78.59;94765.76;1576373;90;21049;-49
2023/01/07 02:10:43;;;;;;;150.65;77.60;;;;;;;1.95;78.66;94769.10;1595105;89;21510;-48
2023/01/07 02:13:34;;;;;;;149.70;79.12;;;;;;;1.93;79.00;94767.36;1593679;90;21100;-49
2023/01/07 02:16:24;;;;;;;148.45;77.47;;;;;;;1.96;79.41;94762.52;1640056;86;22201;-47
2023/01/07 02:19:14;;;;;;;165.75;86.70;;;;;;;2.09;79.46;94759.55;1637121;86;21119;-47
2023/01/07 02:21:52;;;;;;;168.28;87.30;;;;;;;2.18;79.61;94757.20;1652207;86;21049;-48
2023/01/07 02:24:54;;;;;;;144.65;71.42;;;;;;;2.30;79.43;94754.82;1636899;86;21125;-48
2023/01/07 02:27:47;;;;;;;131.05;69.90;;;;;;;2.37;79.03;94754.02;1637551;86;21493;-47
2023/01/07 02:30:28;;;;;;;122.10;65.78;;;;;;;2.37;78.68;94756.73;1602269;89;21601;-49
2023/01/07 02:33:33;;;;;;;122.33;63.65;;;;;;;2.43;78.47;94757.30;1597317;89;21041;-49
2023/01/07 02:36:14;;;;;;;107.12;58.05;;;;;;;2.47;78.34;94749.14;1569987;90;21036;-47
2023/01/07 02:39:06;;;;;;;111.22;61.02;;;;;;;2.51;78.12;94752.61;1551266;91;21090;-48
2023/01/07 02:41:39;;;;;;;103.90;56.05;;;;;;;2.53;78.13;94750.27;1526982;91;21152;-48
2023/01/07 02:44:29;;;;;;;;;;;;;;;2.62;78.08;94756.02;1538498;92;21193;-48
2023/01/07 02:47:21;;;;;;;118.30;61.50;;;;;;;2.66;77.93;94762.23;1536135;92;20183;-48
2023/01/07 02:49:48;;;;;;;119.55;61.70;;;;;;;2.74;77.99;94765.08;1508483;94;21108;-49
2023/01/07 02:52:23;;;;;;;111.75;59.33;;;;;;;2.83;77.68;94766.19;1528111;92;21665;-48
2023/01/07 02:55:04;;;;;;;116.62;64.45;;;;;;;2.92;77.64;94763.03;1492237;93;21013;-47
2023/01/07 02:57:57;;;;;;;117.17;63.45;;;;;;;2.98;77.32;94764.94;1536385;92;21172;-48
2023/01/07 03:00:57;;;;;;;131.87;70.17;;;;;;;3.01;77.15;94768.78;1593483;89;21017;-47
2023/01/07 03:03:45;;;;;;;117.42;60.73;;;;;;;3.08;77.10;94753.21;1610339;88;21055;-47
2023/01/07 03:06:53;;;;;;;59.60;33.38;;;;;;;3.10;77.03;94764.48;1616183;88;21513;-47
2023/01/07 03:09:34;;;;;;;14.23;10.45;;;;;;;3.13;77.33;94749.30;1619184;88;21257;-49
2023/01/07 03:12:29;;;;;;;8.15;6.40;;;;;;;3.28;77.23;94745.31;1612396;87;21421;-48
2023/01/07 03:15:23;;;;;;;5.85;5.28;;;;;;;3.51;76.56;94755.20;1602503;88;21156;-48
2023/01/07 03:18:13;;;;;;;7.40;6.67;;;;;;;3.71;75.72;94746.66;1577206;90;21040;-48
2023/01/07 03:20:40;;;;;;;6.00;5.40;;;;;;;3.84;75.34;94745.59;1608889;88;21115;-48
2023/01/07 03:23:10;;;;;;;6.58;5.50;;;;;;;3.93;75.05;94749.37;1605965;88;21555;-49
2023/01/07 03:25:41;;;;;;;6.08;5.10;;;;;;;4.05;74.74;94743.40;1580149;86;21296;-48
2023/01/07 03:28:09;;;;;;;5.70;5.20;;;;;;;4.13;74.13;94735.93;1624574;87;21105;-48
2023/01/07 03:30:37;;;;;;;5.25;4.75;;;;;;;4.18;73.61;94729.45;1620455;87;21163;-48
2023/01/07 03:33:21;;;;;;;5.95;4.95;;;;;;;4.21;73.40;94732.72;1625000;87;21098;-48
2023/01/07 03:35:49;;;;;;;5.10;4.70;;;;;;;4.25;72.96;94732.69;1621999;87;20990;-47
2023/01/07 03:38:16;;;;;;;5.05;4.65;;;;;;;4.31;72.60;94733.78;1598275;87;21749;-48
2023/01/07 03:40:43;;;;;;;5.03;4.62;;;;;;;4.32;72.36;94742.91;1605129;87;21625;-48
2023/01/07 03:43:16;;;;;;;5.42;4.92;;;;;;;4.39;72.23;94741.45;1623990;87;21078;-48
2023/01/07 03:45:44;;;;;;;6.78;6.08;;;;;;;4.41;72.20;94741.81;1621211;87;21078;-48
2023/01/07 03:48:11;;;;;;;21.02;14.13;;;;;;;4.42;72.16;94743.36;1628038;87;21119;-50
2023/01/07 03:50:38;;;;;;;30.95;18.40;;;;;;;4.46;72.23;94746.05;1636781;83;21562;-48
2023/01/07 03:53:05;;;;;;;32.67;21.12;;;;;;;4.42;72.24;94749.41;1709426;81;21608;-48
2023/01/07 03:55:34;;;;;;;32.88;20.20;;;;;;;4.39;72.42;94744.18;1701446;81;21041;-47
2023/01/07 03:58:01;;;;;;;41.30;25.92;;;;;;;4.39;72.47;94742.81;1710395;81;21228;-48
2023/01/07 04:00:28;;;;;;;40.17;23.85;;;;;;;4.40;72.49;94747.69;1742474;81;21092;-47
2023/01/07 04:02:57;;;;;;;34.25;21.50;;;;;;;4.43;72.39;94747.63;1660961;86;21253;-49
2023/01/07 04:05:25;;;;;;;33.48;21.57;;;;;;;4.46;72.34;94738.62;1657626;86;21067;-48
2023/01/07 04:07:52;;;;;;;22.58;15.53;;;;;;;4.52;72.08;94736.23;1661039;86;21007;-48
2023/01/07 04:10:19;;;;;;;25.45;14.70;;;;;;;4.57;72.06;94737.16;1661294;86;21113;-48
2023/01/07 04:12:48;;;;;;;21.50;13.80;;;;;;;4.61;72.02;94733.19;1661266;86;21113;-48
2023/01/07 04:15:15;;;;;;;22.13;14.68;;;;;;;4.65;71.96;94729.86;1634460;86;21350;-48
2023/01/07 04:17:41;;;;;;;24.85;15.45;;;;;;;4.67;71.94;94738.39;1661159;86;21110;-48
2023/01/07 04:20:09;;;;;;;23.65;14.78;;;;;;;4.66;72.00;94751.83;1638994;86;21058;-48
2023/01/07 04:22:36;;;;;;;26.00;16.90;;;;;;;4.68;71.87;94764.45;1660968;85;21085;-50
2023/01/07 04:25:05;;;;;;;26.87;16.05;;;;;;;4.66;71.90;94761.36;1661118;86;21618;-48
2023/01/07 04:27:33;;;;;;;10.30;7.78;;;;;;;4.63;71.77;94764.87;1661254;86;21276;-48
2023/01/07 04:30:00;;;;;;;9.03;7.20;;;;;;;4.62;71.72;94764.70;1660685;86;21024;-49
2023/01/07 04:32:30;;;;;;;13.20;9.05;;;;;;;4.63;71.54;94756.70;1660987;86;21153;-49
2023/01/07 04:34:56;;;;;;;7.17;6.25;;;;;;;4.66;71.66;94760.58;1660982;86;21555;-48
2023/01/07 04:37:24;;;;;;;12.47;7.37;;;;;;;4.71;71.19;94769.08;1661009;85;21051;-48
2023/01/07 04:39:51;;;;;;;6.55;5.25;;;;;;;4.72;70.96;94775.28;1677754;81;21171;-49
2023/01/07 04:42:17;;;;;;;8.05;6.10;;;;;;;4.76;70.73;94776.78;1760727;78;21026;-49
2023/01/07 04:44:44;;;;;;;77.03;8.60;;;;;;;4.80;70.43;94770.70;1803467;78;21084;-49
2023/01/07 04:47:11;;;;;;;21.97;6.33;;;;;;;4.86;70.26;94777.25;1782326;79;21037;-48
2023/01/07 04:49:38;;;;;;;8.35;6.20;;;;;;;4.81;70.22;94769.51;1801878;79;20994;-48
2023/01/07 04:52:05;;;;;;;8.30;7.10;;;;;;;4.77;70.35;94778.33;1803960;78;21226;-47
2023/01/07 04:54:33;;;;;;;15.10;10.75;;;;;;;4.75;70.35;94786.75;1806661;78;21527;-48
2023/01/07 04:57:00;;;;;;;14.53;9.38;;;;;;;4.74;70.36;94785.96;1808492;78;21030;-47
2023/01/07 04:59:27;;;;;;;13.20;9.15;;;;;;;4.76;70.36;94782.23;1780916;79;20994;-48
2023/01/07 05:01:55;;;;;;;27.73;10.40;;;;;;;4.79;70.19;94783.38;1817728;79;21080;-47
2023/01/07 05:04:22;;;;;;;32.93;10.15;;;;;;;4.82;70.20;94775.14;1782952;78;21160;-47
2023/01/07 05:06:49;;;;;;;11.33;7.65;;;;;;;4.88;70.26;94789.09;1778290;79;20994;-47
2023/01/07 05:09:16;;;;;;;11.03;8.05;;;;;;;4.91;70.27;94794.50;1805252;78;21007;-48
2023/01/07 05:11:44;;;;;;;12.50;9.15;;;;;;;4.93;70.25;94792.14;1802220;79;21498;-52
2023/01/07 05:14:12;;;;;;;17.95;13.15;;;;;;;4.99;70.04;94789.73;1806824;78;20919;-48
2023/01/07 05:16:40;;;;;;;19.17;11.85;;;;;;;5.07;69.82;94794.68;1817491;78;21162;-49
2023/01/07 05:19:10;;;;;;;22.82;14.98;;;;;;;5.15;69.40;94798.08;1744983;81;21139;-50
2023/01/07 05:21:38;;;;;;;13.65;9.73;;;;;;;5.16;69.03;94803.11;1718603;82;21608;-50
2023/01/07 05:24:07;;;;;;;16.62;11.38;;;;;;;5.16;68.84;94801.74;1718947;83;21671;-49
2023/01/07 05:26:35;;;;;;;15.50;12.03;;;;;;;5.16;68.67;94799.02;1718777;82;21085;-48
2023/01/07 05:29:02;;;;;;;7.70;7.00;;;;;;;5.15;68.77;94802.92;1715265;82;21055;-49
2023/01/07 05:31:29;;;;;;;7.40;6.55;;;;;;;5.18;68.54;94796.64;1692543;82;21085;-49
2023/01/07 05:33:56;;;;;;;10.65;7.87;;;;;;;5.19;68.33;94798.19;1715073;82;21023;-48
2023/01/07 05:36:23;;;;;;;8.03;6.58;;;;;;;5.15;68.25;94796.11;1720091;82;21049;-48
2023/01/07 05:38:50;;;;;;;16.25;11.43;;;;;;;5.10;68.40;94797.94;1664384;85;21077;-48
2023/01/07 05:41:17;;;;;;;11.35;8.13;;;;;;;5.09;68.54;94800.48;1667373;86;21260;-48
2023/01/07 05:43:43;;;;;;;14.38;10.18;;;;;;;5.06;68.44;94790.41;1703180;81;21025;-48
2023/01/07 05:46:10;;;;;;;32.23;19.32;;;;;;;5.03;68.62;94793.96;1748484;81;21071;-50
2023/01/07 05:48:37;;;;;;;11.88;8.83;;;;;;;5.03;68.63;94789.88;1750010;81;20985;-48
2023/01/07 05:51:05;;;;;;;134.47;85.85;;;;;;;5.08;68.66;94796.22;1748191;81;20997;-49
2023/01/07 05:53:32;;;;;;;293.02;170.25;;;;;;;5.15;68.61;94799.45;1753128;81;22179;-47
2023/01/07 05:55:59;;;;;;;276.27;161.22;;;;;;;5.23;68.62;94800.30;1750534;81;21465;-48
2023/01/07 05:58:27;;;;;;;116.10;65.70;;;;;;;5.28;68.57;94802.55;1750071;81;21096;-50
2023/01/07 06:00:54;;;;;;;196.18;114.20;;;;;;;5.36;68.51;94813.53;1746964;81;21623;-48
2023/01/07 06:03:21;;;;;;;252.53;152.32;;;;;;;5.43;68.39;94812.08;1720959;82;21000;-49
2023/01/07 06:05:49;;;;;;;121.35;83.00;;;;;;;5.51;68.34;94818.96;1720284;82;21050;-49
2023/01/07 06:08:16;;;;;;;45.20;31.35;;;;;;;5.55;67.95;94822.40;1719719;82;21526;-49
2023/01/07 06:10:43;;;;;;;63.90;40.45;;;;;;;5.54;67.66;94810.73;1766979;79;21629;-50
2023/01/07 06:13:10;;;;;;;25.52;18.23;;;;;;;5.54;67.71;94806.64;1772103;80;21022;-49
2023/01/07 06:15:37;;;;;;;47.08;24.05;;;;;;;5.52;67.63;94819.92;1780389;80;21001;-49
2023/01/07 06:18:04;;;;;;;58.83;26.10;;;;;;;5.44;67.79;94824.53;1777067;80;21960;-49
2023/01/07 06:20:33;;;;;;;64.27;40.75;;;;;;;5.39;68.09;94823.64;1775630;80;21061;-49
2023/01/07 06:23:01;;;;;;;58.02;33.38;;;;;;;5.37;68.13;94821.89;1775090;80;21033;-50
2023/01/07 06:25:28;;;;;;;25.62;16.80;;;;;;;5.38;68.35;94826.19;1770703;80;21010;-49
2023/01/07 06:27:58;;;;;;;31.95;17.10;;;;;;;5.40;68.59;94829.27;1771891;80;21062;-49
2023/01/07 06:30:24;;;;;;;42.30;18.12;;;;;;;5.44;68.63;94835.45;1781776;80;21344;-51
2023/01/07 06:32:51;;;;;;;38.15;21.93;;;;;;;5.45;68.75;94837.75;1785309;80;21061;-48
2023/01/07 06:35:18;;;;;;;40.12;26.50;;;;;;;5.49;68.87;94843.95;1775481;80;21483;-49
2023/01/07 06:37:44;;;;;;;53.63;29.02;;;;;;;5.50;68.99;94843.34;1772043;80;21076;-50
2023/01/07 06:40:11;;;;;;;39.18;22.70;;;;;;;5.50;69.08;94837.88;1769679;80;21092;-49
2023/01/07 06:42:38;;;;;;;33.18;20.30;;;;;;;5.49;68.96;94844.52;1773988;80;21978;-49
2023/01/07 06:45:07;;;;;;;40.03;24.75;;;;;;;5.44;69.26;94849.09;1774576;80;21011;-49
2023/01/07 06:47:34;;;;;;;42.15;26.30;;;;;;;5.44;69.34;94849.09;1770986;80;21464;-51
2023/01/07 06:50:01;;;;;;;44.03;28.35;;;;;;;5.35;69.41;94847.45;1765343;80;21236;-50
2023/01/07 06:52:28;;;;;;;30.62;19.85;;;;;;;5.27;69.66;94859.65;1729948;81;21093;-49
2023/01/07 06:54:55;;;;;;;32.25;20.32;;;;;;;5.25;69.77;94860.66;1748056;80;21160;-49
2023/01/07 06:57:22;;;;;;;28.52;17.85;;;;;;;5.25;69.85;94862.77;1762933;81;21143;-49
2023/01/07 06:59:48;;;;;;;31.62;17.75;;;;;;;5.23;70.10;94865.75;1759011;80;20965;-50
2023/01/07 07:02:22;;;;;;;21.68;16.27;;;;;;;5.22;70.23;94859.33;1756315;80;21084;-49
2023/01/07 07:04:48;;;;;;;31.87;23.12;;;;;;;5.18;70.27;94851.80;1709661;83;21120;-50
2023/01/07 07:07:15;;;;;;;40.80;22.50;;;;;;;5.16;70.59;94850.07;1707856;83;21152;-50
2023/01/07 07:09:42;;;;;;;36.25;23.40;;;;;;;5.20;70.57;94848.06;1708160;82;21077;-49
2023/01/07 07:12:09;;;;;;;31.90;22.77;;;;;;;5.26;70.38;94850.68;1704877;82;21538;-51
2023/01/07 07:14:36;;;;;;;35.50;26.10;;;;;;;5.36;70.25;94848.98;1709307;83;21084;-49
2023/01/07 07:17:04;;;;;;;36.53;25.17;;;;;;;5.45;69.99;94847.30;1706682;83;20982;-48
2023/01/07 07:19:31;;;;;;;50.05;32.70;;;;;;;5.52;69.71;94850.52;1708570;83;21257;-49
2023/01/07 07:21:58;;;;;;;51.18;31.62;;;;;;;5.60;69.36;94853.34;1694268;84;21076;-50
2023/01/07 07:24:24;;;;;;;48.87;30.15;;;;;;;5.68;68.97;94852.03;1690098;84;21144;-50
2023/01/07 07:26:51;;;;;;;41.68;25.25;;;;;;;5.71;68.65;94859.39;1689472;83;20988;-50
2023/01/07 07:29:18;;;;;;;47.67;28.32;;;;;;;5.70;68.53;94860.58;1697412;83;21522;-50
2023/01/07 07:31:45;;;;;;;43.20;27.65;;;;;;;5.68;68.43;94862.95;1713874;83;21870;-51
2023/01/07 07:34:12;;;;;;;48.20;25.30;;;;;;;5.70;68.43;94866.82;1666476;83;21084;-49
2023/01/07 07:36:39;;;;;;;21.75;15.83;;;;;;;5.75;68.45;94875.90;1712324;83;21158;-49
2023/01/07 07:39:06;;;;;;;19.62;14.43;;;;;;;5.80;68.39;94870.60;1711453;83;21084;-50
2023/01/07 07:41:33;;;;;;;27.85;18.95;;;;;;;5.88;68.05;94875.55;1715941;83;21135;-48
2023/01/07 07:44:00;;;;;;;52.25;25.23;;;;;;;5.95;68.01;94882.86;1692105;83;21148;-51
2023/01/07 07:46:27;;;;;;;44.08;23.55;;;;;;;5.98;68.02;94888.85;1718451;83;21095;-49
2023/01/07 07:48:54;;;;;;;36.45;18.27;;;;;;;6.05;67.75;94887.36;1692309;83;21184;-50
2023/01/07 07:51:20;;;;;;;39.38;23.92;;;;;;;6.13;67.53;94887.44;1715447;83;21050;-49
2023/01/07 07:53:47;;;;;;;32.98;20.77;;;;;;;6.17;67.31;94896.34;1722399;81;21056;-49
2023/01/07 07:56:14;;;;;;;43.75;26.42;;;;;;;6.20;67.22;94885.38;1748889;81;21138;-50
2023/01/07 08:01:10;;;;;;;68.33;34.70;;;;;;;6.33;67.36;94898.59;1692365;81;21072;-51
2023/01/07 08:03:37;;;;;;;64.87;33.88;;;;;;;6.39;67.71;94894.22;1712165;81;21053;-49
2023/01/07 08:06:06;;;;;;;39.50;22.13;;;;;;;6.51;67.78;94879.17;1698827;82;21054;-49
2023/01/07 08:08:33;;;;;;;34.78;21.68;;;;;;;6.68;67.21;94880.20;1681046;82;21262;-50
2023/01/07 08:10:59;;;;;;;47.45;22.75;;;;;;;6.79;66.33;94876.69;1686337;82;22156;-49
2023/01/07 08:13:26;;;;;;;36.50;21.62;;;;;;;6.95;65.91;94880.09;1712819;81;21618;-52
2023/01/07 08:15:53;;;;;;;22.48;12.80;;;;;;;7.01;65.60;94872.93;1702476;83;21085;-50
2023/01/07 08:18:20;;;;;;;21.15;11.90;;;;;;;7.04;64.84;94880.32;1730420;83;21518;-48
2023/01/07 08:20:47;;;;;;;32.25;16.40;;;;;;;7.02;64.78;94885.41;1718445;81;21204;-50
2023/01/07 08:23:14;;;;;;;23.35;14.58;;;;;;;6.97;64.93;94888.64;1723335;81;21039;-50
2023/01/07 08:25:41;;;;;;;23.80;9.83;;;;;;;6.91;64.90;94890.33;1713503;83;21009;-49
2023/01/07 08:28:09;;;;;;;14.07;8.98;;;;;;;6.87;64.78;94880.06;1716537;82;21061;-49
2023/01/07 08:30:37;;;;;;;11.57;8.28;;;;;;;6.81;64.63;94877.05;1694747;83;21214;-51
2023/01/07 08:33:06;;;;;;;16.93;11.83;;;;;;;6.79;64.69;94888.20;1692623;82;21538;-50
2023/01/07 08:35:33;;;;;;;23.70;16.65;;;;;;;6.79;64.92;94890.94;1688562;83;21597;-49
2023/01/07 08:38:03;;;;;;;29.15;17.60;;;;;;;6.86;64.95;94901.16;1691177;82;21078;-49
2023/01/07 08:40:30;;;;;;;50.43;27.48;;;;;;;6.94;65.10;94894.37;1722542;82;21151;-49
2023/01/07 08:42:59;;;;;;;83.30;42.58;;;;;;;7.01;65.12;94898.91;1721448;82;21116;-49
2023/01/07 08:45:27;;;;;;;56.35;31.90;;;;;;;7.10;65.10;94896.58;1698601;82;22077;-48
2023/01/07 08:47:59;;;;;;;46.42;20.52;;;;;;;7.18;64.92;94893.11;1729601;82;21002;-50
2023/01/07 08:50:27;;;;;;;29.42;13.50;;;;;;;7.21;64.35;94886.20;1730461;82;21578;-49
2023/01/07 08:52:54;;;;;;;23.73;13.32;;;;;;;7.18;64.36;94889.77;1731612;82;21027;-50
2023/01/07 08:55:22;;;;;;;24.05;13.70;;;;;;;7.19;64.45;94892.67;1725863;83;21031;-50
2023/01/07 08:57:52;;;;;;;22.00;13.25;;;;;;;7.24;64.29;94896.30;1712522;82;21885;-50
2023/01/07 09:00:23;;;;;;;26.17;13.50;;;;;;;7.26;64.09;94898.59;1813804;78;21030;-51
2023/01/07 09:02:55;;;;;;;32.80;12.88;;;;;;;7.29;63.79;94899.91;1804032;79;21088;-48
2023/01/07 09:05:23;;;;;;;15.45;11.22;;;;;;;7.28;63.81;94894.26;1804470;78;21154;-50
2023/01/07 09:07:54;;;;;;;20.75;13.20;;;;;;;7.26;63.75;94896.65;1816603;79;21033;-47
2023/01/07 09:10:24;;;;;;;36.48;18.12;;;;;;;7.28;63.83;94891.52;1783761;78;21251;-50
2023/01/07 09:12:54;;;;;;;46.85;22.85;;;;;;;7.37;64.08;94895.06;1810156;78;20926;-49
2023/01/07 09:15:23;;;;;;;63.78;20.48;;;;;;;7.45;64.15;94889.59;1808365;78;21392;-50
2023/01/07 09:17:50;;;;;;;25.97;15.65;;;;;;;7.56;64.12;94886.80;1817800;79;21474;-50
2023/01/07 09:20:18;;;;;;;22.10;13.38;;;;;;;7.66;64.28;94890.53;1811294;78;20986;-51
2023/01/07 09:22:44;;;;;;;24.10;17.35;;;;;;;7.76;63.82;94888.92;1810608;78;21243;-52
2023/01/07 09:25:11;;;;;;;29.92;24.67;;;;;;;7.86;63.35;94896.73;1808993;79;20998;-51
2023/01/07 09:27:39;;;;;;;26.77;16.40;;;;;;;7.95;63.01;94885.94;1781595;79;21124;-50
2023/01/07 09:30:09;;;;;;;14.07;8.70;;;;;;;8.01;62.08;94886.38;1784718;78;21060;-49
2023/01/07 09:32:36;;;;;;;17.62;8.85;;;;;;;8.03;61.98;94891.45;1793342;79;21542;-51
2023/01/07 09:35:05;;;;;;;13.35;9.90;;;;;;;8.03;61.77;94888.09;1808276;79;21734;-50
2023/01/07 09:37:32;;;;;;;30.17;9.55;;;;;;;8.05;61.88;94889.05;1808629;78;21022;-49
2023/01/07 09:40:00;;;;;;;18.77;8.15;;;;;;;8.16;61.93;94886.81;1812605;79;21020;-50
2023/01/07 09:43:01;;;;;;;10.98;6.60;;;;;;;8.28;61.52;94888.29;1795912;78;21017;-51
2023/01/07 09:45:38;;;;;;;11.50;8.30;;;;;;;8.27;61.17;94887.37;1805372;78;21103;-50
2023/01/07 09:48:10;;;;;;;13.93;8.03;;;;;;;8.20;61.44;94880.67;1681790;83;21409;-50
2023/01/07 09:51:00;;;;;;;11.07;7.50;;;;;;;8.22;61.55;94880.42;1645247;85;20990;-50
2023/01/07 09:53:40;;;;;;;13.45;9.03;;;;;;;8.25;61.46;94878.80;1615524;87;21168;-51
2023/01/07 09:56:21;;;;;;;11.15;7.35;;;;;;;8.27;61.42;94879.14;1589945;89;21158;-50
2023/01/07 09:58:48;;;;;;;23.02;7.37;;;;;;;8.31;61.38;94875.12;1520787;92;21108;-49
2023/01/07 10:01:40;;;;;;;18.80;6.03;;;;;;;8.40;61.35;94878.02;1508579;92;21219;-49
2023/01/07 10:04:43;;;;;;;52.38;38.65;;;;;;;8.48;60.86;94880.77;1523248;92;21123;-50
2023/01/07 10:07:18;;;;;;;12.53;7.75;;;;;;;8.52;60.94;94874.59;1528855;92;21201;-49
2023/01/07 10:10:09;;;;;;;10.43;7.30;;;;;;;8.68;60.72;94878.68;1522808;92;21250;-51
2023/01/07 10:12:57;;;;;;;20.00;8.75;;;;;;;8.72;60.36;94877.98;1499230;92;21495;-50
2023/01/07 10:15:44;;;;;;;12.33;8.03;;;;;;;8.69;60.51;94873.95;1520159;91;21370;-49
2023/01/07 10:18:22;;;;;;;12.47;7.17;;;;;;;8.64;60.65;94873.86;1509573;92;21060;-51
2023/01/07 10:21:13;;;;;;;8.73;6.20;;;;;;;8.78;60.47;94877.61;1509842;92;21227;-51
2023/01/07 10:23:50;;;;;;;5.40;4.60;;;;;;;9.11;59.83;94861.23;1491712;94;21243;-49
2023/01/07 10:26:35;;;;;;;6.45;5.60;;;;;;;9.34;58.63;94856.84;1496651;93;21666;-50
2023/01/07 10:29:12;;;;;;;11.10;6.47;;;;;;;9.67;58.26;94862.33;1490687;94;21234;-52
2023/01/07 10:31:39;;;;;;;12.28;6.12;;;;;;;9.83;57.29;94856.75;1493390;94;21190;-49
2023/01/07 10:34:13;;;;;;;12.73;6.28;;;;;;;9.83;57.09;94857.50;1517870;93;21253;-50
2023/01/07 10:36:57;;;;;;;8.05;6.00;;;;;;;9.92;57.17;94848.59;1498319;92;21116;-50
2023/01/07 10:40:20;;;;;;;7.72;6.00;;;;;;;9.91;56.62;94847.06;1441656;97;21142;-51
2023/01/07 10:43:01;;;;;;;24.87;6.33;;;;;;;9.68;56.69;94851.52;1438700;99;21279;-48
2023/01/07 10:45:53;;;;;;;15.38;5.58;;;;;;;9.39;57.67;94845.31;1481068;95;22892;-49
2023/01/07 10:48:48;;;;;;;6.67;5.17;;;;;;;9.39;57.67;94845.31;1541173;92;21248;-50
2023/01/07 10:51:58;;;;;;;11.48;5.60;;;;;;;9.38;57.25;94846.52;1524388;93;21553;-50
2023/01/07 10:54:46;;;;;;;10.93;5.25;;;;;;;9.39;57.45;94845.31;1608560;88;21613;-49
2023/01/07 10:57:24;;;;;;;8.88;4.67;;;;;;;9.69;57.43;94848.93;1624217;87;21286;-49
2023/01/07 10:59:54;;;;;;;10.03;5.78;;;;;;;10.28;56.28;94845.70;1549277;89;21089;-51
2023/01/07 11:02:25;;;;;;;18.15;5.10;;;;;;;10.80;55.26;94836.27;1602152;89;21051;-49
2023/01/07 11:04:54;;;;;;;15.95;6.28;;;;;;;11.04;54.22;94834.02;1601334;88;21092;-50
2023/01/07 11:07:44;;;;;;;13.78;5.60;;;;;;;10.97;53.73;94835.63;1604023;89;21168;-53
2023/01/07 11:10:21;;;;;;;21.33;7.08;;;;;;;10.78;53.16;94830.45;1597356;89;21927;-49
2023/01/07 11:12:55;;;;;;;11.35;6.83;;;;;;;10.64;53.36;94830.14;1538700;91;21057;-50
2023/01/07 11:15:35;;;;;;;9.05;5.85;;;;;;;10.63;53.34;94832.73;1529254;93;21160;-49
2023/01/07 11:18:08;;;;;;;5.97;4.80;;;;;;;10.59;53.00;94822.47;1525516;93;21041;-49
2023/01/07 11:20:52;;;;;;;9.18;7.37;;;;;;;10.45;52.25;94829.81;1525771;93;21124;-48
2023/01/07 11:23:37;;;;;;;21.87;16.02;;;;;;;10.29;52.35;94820.33;1525521;92;21299;-48
2023/01/07 11:26:14;;;;;;;13.45;11.78;;;;;;;10.28;52.15;94828.41;1528947;93;21573;-49
2023/01/07 11:29:03;;;;;;;102.30;10.30;;;;;;;10.36;52.48;94820.11;1505960;94;21283;-49
2023/01/07 11:31:52;;;;;;;19.82;16.42;;;;;;;10.51;52.47;94830.80;1464845;97;21171;-50
2023/01/07 11:34:33;;;;;;;18.52;16.77;;;;;;;10.41;52.03;94833.30;1477517;94;21190;-50
2023/01/07 11:37:01;;;;;;;22.37;17.52;;;;;;;10.27;52.18;94824.13;1516290;90;22116;-50
2023/01/07 11:39:33;;;;;;;14.65;13.05;;;;;;;10.22;52.34;94830.20;1581902;90;21114;-49
2023/01/07 11:45:17;;;;;;;12.45;5.37;;;;;;;10.30;52.13;94833.65;1551612;90;21071;-50
2023/01/07 11:47:59;;;;;;;5.25;3.58;;;;;;;10.23;52.02;94831.73;1547918;90;21122;-48
2023/01/07 11:50:40;;;;;;;11.60;10.13;;;;;;;10.00;52.34;94827.33;1496465;94;22037;-49
2023/01/07 11:53:21;;;;;;;11.78;8.45;;;;;;;9.83;52.87;94829.27;1487940;94;21171;-50
2023/01/07 11:56:07;;;;;;;7.35;4.45;;;;;;;10.13;52.89;94834.23;1488337;95;21174;-49
2023/01/07 11:58:42;;;;;;;5.78;5.28;;;;;;;10.65;51.01;94826.96;1465024;95;21804;-52